Terminal Aerodrome Forecast
Issued by NWS

Home | Current Version | Previous Version | Graphics & Text | Print | Product List | Glossary On
Versions: 1 2 3 4 5 6 7 8 9 10 11 12 13 14 15
000
FTUS43 KGRB 041100 AAA
TAFMTW
TAF AMD
KMTW 041102Z 0411/0506 32006KT 4SM BR SCT070 BKN200
      TEMPO 0411/0413 1SM BR SCT008 BKN070
     FM041500 04012KT P6SM SCT250
     FM042100 06008KT P6SM SCT250=

USA.gov is the U.S. government's official web portal to all federal, state and local government web resources and services.